createdAt,value
2019-04-06T00:00:14.680Z,31.52
2019-04-06T00:02:44.938Z,32.70
2019-04-06T00:05:14.648Z,32.95
2019-04-06T00:07:45.341Z,32.93
2019-04-06T00:10:15.450Z,34.27
2019-04-06T00:12:44.756Z,33.25
2019-04-06T00:15:14.286Z,33.30
2019-04-06T00:17:43.600Z,34.20
2019-04-06T00:20:13.007Z,34.20
2019-04-06T00:22:42.576Z,34.43
2019-04-06T00:25:13.229Z,35.10
2019-04-06T00:27:42.570Z,34.50
2019-04-06T00:30:12.291Z,35.45
2019-04-06T00:32:55.361Z,33.40
2019-04-06T00:37:53.554Z,33.85
2019-04-06T00:40:22.860Z,33.88
2019-04-06T00:42:52.436Z,34.05
2019-04-06T00:45:21.774Z,33.73
2019-04-06T00:47:51.276Z,34.05
2019-04-06T00:50:21.622Z,34.33
2019-04-06T00:52:52.001Z,36.60
2019-04-06T00:55:21.306Z,37.10
2019-04-06T00:57:50.662Z,34.20
2019-04-06T01:00:20.262Z,36.75
2019-04-06T01:02:49.661Z,37.80
2019-04-06T01:05:19.217Z,35.83
2019-04-06T01:07:48.541Z,35.70
2019-04-06T01:10:17.940Z,36.83
2019-04-06T01:12:47.289Z,37.98
2019-04-06T01:15:16.635Z,36.63
2019-04-06T01:17:46.095Z,37.93
2019-04-06T01:20:15.521Z,39.18
2019-04-06T01:22:44.894Z,37.85
2019-04-06T01:25:14.453Z,39.23
2019-04-06T01:27:43.779Z,38.78
2019-04-06T01:30:13.215Z,37.38
2019-04-06T01:32:42.694Z,37.55
2019-04-06T01:35:12.040Z,38.33
2019-04-06T01:37:41.354Z,36.48
2019-04-06T01:40:11.307Z,37.67
2019-04-06T01:42:40.617Z,36.55
2019-04-06T01:45:10.283Z,37.40
2019-04-06T01:47:39.604Z,36.20
2019-04-06T01:50:09.161Z,35.90
2019-04-06T01:52:38.680Z,36.42
2019-04-06T01:55:08.049Z,36.98
2019-04-06T01:57:37.356Z,36.70
2019-04-06T02:00:09.711Z,35.80
2019-04-06T02:02:40.749Z,37.38
2019-04-06T02:05:10.932Z,36.95
2019-04-06T02:07:40.246Z,35.45
2019-04-06T02:10:10.660Z,36.23
2019-04-06T02:12:39.957Z,38.20
2019-04-06T02:15:09.734Z,36.33
2019-04-06T02:17:39.030Z,36.75
2019-04-06T02:20:08.744Z,36.98
2019-04-06T02:22:38.075Z,34.85
2019-04-06T02:25:09.006Z,37.25
2019-04-06T02:27:38.376Z,38.15
2019-04-06T02:30:19.190Z,36.58
2019-04-06T02:32:59.188Z,37.23
2019-04-06T02:35:30.342Z,36.45
2019-04-06T02:38:01.371Z,38.15
2019-04-06T02:40:32.363Z,36.40
2019-04-06T02:43:03.305Z,36.93
2019-04-06T02:45:32.641Z,38.15
2019-04-06T02:48:01.954Z,36.17
2019-04-06T02:50:31.278Z,37.05
2019-04-06T02:53:00.613Z,37.83
2019-04-06T02:55:31.245Z,37.55
2019-04-06T02:58:00.771Z,37.98
2019-04-06T03:00:30.603Z,38.05
2019-04-06T03:03:00.016Z,37.58
2019-04-06T03:05:29.422Z,37.78
2019-04-06T03:08:01.657Z,38.33
2019-04-06T03:10:31.140Z,38.20
2019-04-06T03:13:00.454Z,38.28
2019-04-06T03:15:29.793Z,39.60
2019-04-06T03:17:59.285Z,38.90
2019-04-06T03:20:28.721Z,40.17
2019-04-06T03:22:57.979Z,40.45
2019-04-06T03:25:27.700Z,40.60
2019-04-06T03:27:57.199Z,41.75
2019-04-06T03:30:26.944Z,40.25
2019-04-06T03:32:56.930Z,42.17
2019-04-06T03:35:27.714Z,42.98
2019-04-06T03:37:57.296Z,43.63
2019-04-06T03:40:26.761Z,41.18
2019-04-06T03:42:56.098Z,42.00
2019-04-06T03:45:25.409Z,43.55
2019-04-06T03:47:54.770Z,43.10
2019-04-06T03:50:25.162Z,42.88
2019-04-06T03:52:54.530Z,42.50
2019-04-06T03:55:23.812Z,43.50
2019-04-06T03:57:53.179Z,43.05
2019-04-06T04:00:22.658Z,43.70
2019-04-06T04:02:52.594Z,43.35
2019-04-06T04:05:22.059Z,43.80
2019-04-06T04:07:51.373Z,43.58
2019-04-06T04:10:31.818Z,44.80
2019-04-06T04:13:01.260Z,42.67
2019-04-06T04:15:30.467Z,44.23
2019-04-06T04:18:00.553Z,42.85
2019-04-06T04:20:29.956Z,44.45
2019-04-06T04:22:59.712Z,42.27
2019-04-06T04:25:29.163Z,44.25
2019-04-06T04:27:58.684Z,44.35
2019-04-06T04:30:32.790Z,43.60
2019-04-06T04:32:59.455Z,42.30
2019-04-06T04:35:29.148Z,44.75
2019-04-06T04:37:59.607Z,41.70
2019-04-06T04:40:28.951Z,43.50
2019-04-06T04:42:58.270Z,43.30
2019-04-06T04:45:27.864Z,43.92
2019-04-06T04:47:57.256Z,42.13
2019-04-06T04:50:26.599Z,41.50
2019-04-06T04:52:55.912Z,41.90
2019-04-06T04:55:25.200Z,42.30
2019-04-06T04:57:54.707Z,42.60
2019-04-06T05:00:24.065Z,40.88
2019-04-06T05:02:53.379Z,42.25
2019-04-06T05:05:22.709Z,43.78
2019-04-06T05:07:51.997Z,42.73
2019-04-06T05:10:21.347Z,41.30
2019-04-06T05:12:50.658Z,43.10
2019-04-06T05:15:32.210Z,42.03
2019-04-06T05:18:01.656Z,41.58
2019-04-06T05:20:30.946Z,42.62
2019-04-06T05:23:00.419Z,42.65
2019-04-06T05:25:29.700Z,40.78
2019-04-06T05:27:59.101Z,43.25
2019-04-06T05:30:28.448Z,42.23
2019-04-06T05:32:58.056Z,41.65
2019-04-06T05:35:27.333Z,42.62
2019-04-06T05:37:56.651Z,42.10
2019-04-06T05:40:25.922Z,41.48
2019-04-06T05:42:55.238Z,42.60
2019-04-06T05:45:24.636Z,42.65
2019-04-06T05:47:53.978Z,41.58
2019-04-06T05:50:24.467Z,41.42
2019-04-06T05:52:53.778Z,42.48
2019-04-06T05:55:24.466Z,41.75
2019-04-06T05:58:03.702Z,42.78
2019-04-06T06:00:25.218Z,41.70
2019-04-06T06:02:54.520Z,43.65
2019-04-06T06:05:23.807Z,42.45
2019-04-06T06:07:53.098Z,42.35
2019-04-06T06:10:22.386Z,43.08
2019-04-06T06:12:51.905Z,43.15
2019-04-06T06:15:21.224Z,43.30
2019-04-06T06:17:50.845Z,44.48
2019-04-06T06:20:20.220Z,43.45
2019-04-06T06:22:49.488Z,43.38
2019-04-06T06:25:18.805Z,43.45
2019-04-06T06:27:48.256Z,44.33
2019-04-06T06:30:17.807Z,44.27
2019-04-06T06:32:48.263Z,45.17
2019-04-06T06:35:17.834Z,44.25
2019-04-06T06:37:47.268Z,44.35
2019-04-06T06:40:16.757Z,44.15
2019-04-06T06:42:47.606Z,45.80
2019-04-06T06:45:16.971Z,44.95
2019-04-06T06:47:46.484Z,45.00
2019-04-06T06:50:16.463Z,45.83
2019-04-06T06:52:45.925Z,46.83
2019-04-06T06:55:15.253Z,45.30
2019-04-06T06:57:44.797Z,45.15
2019-04-06T07:00:14.510Z,47.00
2019-04-06T07:02:44.056Z,46.25
2019-04-06T07:05:13.695Z,46.70
2019-04-06T07:07:44.628Z,46.25
2019-04-06T07:10:14.271Z,46.85
2019-04-06T07:12:43.633Z,47.38
2019-04-06T07:15:13.000Z,45.70
2019-04-06T07:17:42.549Z,46.48
2019-04-06T07:20:12.438Z,45.70
2019-04-06T07:22:41.837Z,45.90
2019-04-06T07:25:11.408Z,48.10
2019-04-06T07:27:40.734Z,46.55
2019-04-06T07:30:10.211Z,46.60
2019-04-06T07:32:39.737Z,45.63
2019-04-06T07:35:09.346Z,46.23
2019-04-06T07:37:38.854Z,46.13
2019-04-06T07:40:09.791Z,45.35
2019-04-06T07:42:39.163Z,46.23
2019-04-06T07:45:09.190Z,46.05
2019-04-06T07:47:38.591Z,47.15
2019-04-06T07:50:08.197Z,47.78
2019-04-06T07:52:38.649Z,46.08
2019-04-06T07:55:08.177Z,45.43
2019-04-06T07:57:37.575Z,46.88
2019-04-06T08:00:08.028Z,46.95
2019-04-06T08:02:37.856Z,46.65
2019-04-06T08:05:07.307Z,47.27
2019-04-06T08:07:36.747Z,46.35
2019-04-06T08:10:06.638Z,43.28
2019-04-06T08:12:36.046Z,45.65
2019-04-06T08:15:08.236Z,45.30
2019-04-06T08:17:37.618Z,44.85
2019-04-06T08:20:08.537Z,45.55
2019-04-06T08:22:37.878Z,45.10
2019-04-06T08:25:07.443Z,45.40
2019-04-06T08:27:36.868Z,46.42
2019-04-06T08:30:11.175Z,46.23
2019-04-06T08:32:40.806Z,44.75
2019-04-06T08:35:11.584Z,44.45
2019-04-06T08:37:41.152Z,45.20
2019-04-06T08:40:10.536Z,43.40
2019-04-06T08:42:39.875Z,44.38
2019-04-06T08:45:09.311Z,43.87
2019-04-06T08:47:41.697Z,44.63
2019-04-06T08:50:11.877Z,44.70
2019-04-06T08:52:41.253Z,45.40
2019-04-06T08:55:10.742Z,44.58
2019-04-06T08:57:40.170Z,44.73
2019-04-06T09:00:10.016Z,44.27
2019-04-06T09:02:39.340Z,44.42
2019-04-06T09:05:08.908Z,43.33
2019-04-06T09:07:40.571Z,45.58
2019-04-06T09:10:10.053Z,45.55
2019-04-06T09:12:39.717Z,44.10
2019-04-06T09:15:10.000Z,43.87
2019-04-06T09:17:39.957Z,41.63
2019-04-06T09:20:09.347Z,43.90
2019-04-06T09:22:38.731Z,45.80
2019-04-06T09:25:08.388Z,43.78
2019-04-06T09:27:37.833Z,47.58
2019-04-06T09:30:07.512Z,47.05
2019-04-06T09:32:36.937Z,45.83
2019-04-06T09:35:06.243Z,49.75
2019-04-06T09:37:35.622Z,46.55
2019-04-06T09:40:07.248Z,46.20
2019-04-06T09:42:36.791Z,45.52
2019-04-06T09:45:12.542Z,44.98
2019-04-06T09:47:53.777Z,45.58
2019-04-06T09:50:27.749Z,44.83
2019-04-06T09:53:01.946Z,44.70
2019-04-06T09:55:49.116Z,45.60
2019-04-06T09:58:20.258Z,44.27
2019-04-06T10:01:03.689Z,46.45
2019-04-06T10:03:49.921Z,45.33
2019-04-06T10:06:21.117Z,43.52
2019-04-06T10:08:56.634Z,44.75
2019-04-06T10:11:30.572Z,46.05
2019-04-06T10:14:17.997Z,45.75
2019-04-06T10:16:56.316Z,47.03
2019-04-06T10:19:43.455Z,46.45
2019-04-06T10:22:14.423Z,46.95
2019-04-06T10:25:01.842Z,45.90
2019-04-06T10:27:33.171Z,43.52
2019-04-06T10:30:16.055Z,44.13
2019-04-06T10:32:53.380Z,43.05
2019-04-06T10:35:36.586Z,42.65
2019-04-06T10:38:07.663Z,42.90
2019-04-06T10:40:50.945Z,41.02
2019-04-06T10:43:38.258Z,39.58
2019-04-06T10:46:09.402Z,40.12
2019-04-06T10:48:56.814Z,38.90
2019-04-06T10:51:36.647Z,38.42
2019-04-06T10:54:16.754Z,37.23
2019-04-06T10:56:53.553Z,34.03
2019-04-06T10:59:26.991Z,34.48
2019-04-06T11:01:57.919Z,34.65
2019-04-06T11:04:46.563Z,33.40
2019-04-06T11:07:29.602Z,32.15
2019-04-06T11:10:03.734Z,35.13
2019-04-06T11:12:41.024Z,35.95
2019-04-06T11:15:22.750Z,36.65
2019-04-06T11:17:59.523Z,37.90
2019-04-06T11:20:39.258Z,35.17
2019-04-06T11:23:27.115Z,35.40
2019-04-06T11:26:10.193Z,34.78
2019-04-06T11:28:47.448Z,36.13
2019-04-06T11:31:18.676Z,37.28
2019-04-06T11:33:49.612Z,35.75
2019-04-06T11:36:29.831Z,35.58
2019-04-06T11:39:09.282Z,36.75
2019-04-06T11:41:43.432Z,38.23
2019-04-06T11:44:14.521Z,38.70
2019-04-06T11:47:02.436Z,38.45
2019-04-06T11:49:34.482Z,39.73
2019-04-06T11:52:05.479Z,39.97
2019-04-06T11:54:41.094Z,39.40
2019-04-06T11:57:18.353Z,38.60
2019-04-06T12:00:06.477Z,42.03
2019-04-06T12:02:45.178Z,39.83
2019-04-06T12:05:32.201Z,43.10
2019-04-06T12:08:03.129Z,42.78
2019-04-06T12:10:52.517Z,42.67
2019-04-06T12:13:23.489Z,41.25
2019-04-06T12:16:07.990Z,42.23
2019-04-06T12:18:38.992Z,40.80
2019-04-06T12:21:13.134Z,42.83
2019-04-06T12:23:53.125Z,40.15
2019-04-06T12:26:33.189Z,40.15
2019-04-06T12:29:04.329Z,40.50
2019-04-06T12:31:44.694Z,42.55
2019-04-06T12:34:21.814Z,43.08
2019-04-06T12:36:52.762Z,41.50
2019-04-06T12:39:23.879Z,41.58
2019-04-06T12:42:07.175Z,42.78
2019-04-06T12:44:54.396Z,40.78
2019-04-06T12:47:28.651Z,40.03
2019-04-06T12:50:02.752Z,39.85
2019-04-06T12:52:50.419Z,39.75
2019-04-06T12:55:23.302Z,37.90
2019-04-06T12:58:07.579Z,37.83
2019-04-06T13:00:54.369Z,37.05
2019-04-06T13:03:41.967Z,36.75
2019-04-06T13:06:15.418Z,37.25
2019-04-06T13:09:01.369Z,37.50
2019-04-06T13:11:50.206Z,37.58
2019-04-06T13:14:27.217Z,35.83
2019-04-06T13:17:13.394Z,34.63
2019-04-06T13:19:56.434Z,32.63
2019-04-06T13:22:39.437Z,31.52
2019-04-06T13:25:12.858Z,27.95
2019-04-06T13:27:53.119Z,29.45
2019-04-06T13:30:27.213Z,28.42
2019-04-06T13:33:01.515Z,25.70
2019-04-06T13:35:32.459Z,25.02
2019-04-06T13:38:06.554Z,24.30
2019-04-06T13:40:51.351Z,25.75
2019-04-06T13:43:28.973Z,24.47
2019-04-06T13:46:00.327Z,21.40
2019-04-06T13:48:47.565Z,20.08
2019-04-06T13:51:24.502Z,23.22
2019-04-06T13:53:55.508Z,21.75
2019-04-06T13:56:32.853Z,20.15
2019-04-06T13:59:09.732Z,22.65
2019-04-06T14:01:40.898Z,19.50
2019-04-06T14:04:24.958Z,19.77
2019-04-06T14:06:58.445Z,20.05
2019-04-06T14:09:44.135Z,19.75
2019-04-06T14:12:27.402Z,19.60
2019-04-06T14:15:07.472Z,19.73
2019-04-06T14:17:47.593Z,19.92
2019-04-06T14:20:33.948Z,20.72
2019-04-06T14:23:06.160Z,20.20
2019-04-06T14:25:53.853Z,22.67
2019-04-06T14:28:27.665Z,21.93
2019-04-06T14:31:07.579Z,21.97
2019-04-06T14:33:56.197Z,23.47
2019-04-06T14:36:27.391Z,24.52
2019-04-06T14:38:58.522Z,23.57
2019-04-06T14:41:45.754Z,25.32
2019-04-06T14:44:16.781Z,25.25
2019-04-06T14:46:51.099Z,25.72
2019-04-06T14:49:31.807Z,26.02
2019-04-06T14:52:09.782Z,26.17
2019-04-06T14:54:53.404Z,25.52
2019-04-06T14:57:40.829Z,25.75
2019-04-06T15:00:21.087Z,25.05
2019-04-06T15:03:10.511Z,24.20
2019-04-06T15:05:52.323Z,24.12
2019-04-06T15:08:23.359Z,24.35
2019-04-06T15:11:00.561Z,24.90
2019-04-06T15:13:46.411Z,25.82
2019-04-06T15:16:26.723Z,25.05
2019-04-06T15:18:57.940Z,25.88
2019-04-06T15:21:34.948Z,25.15
2019-04-06T15:24:22.195Z,25.40
2019-04-06T15:27:02.318Z,24.57
2019-04-06T15:29:33.399Z,27.05
2019-04-06T15:32:07.370Z,26.37
2019-04-06T15:34:50.889Z,26.27
2019-04-06T15:37:37.141Z,26.60
2019-04-06T15:40:08.763Z,27.32
2019-04-06T15:42:51.896Z,27.52
2019-04-06T15:45:30.315Z,26.55
2019-04-06T15:48:04.248Z,27.62
2019-04-06T15:50:38.227Z,29.57
2019-04-06T15:53:15.133Z,30.50
2019-04-06T15:55:55.475Z,30.88
2019-04-06T15:58:32.306Z,32.03
2019-04-06T16:01:15.597Z,29.20
2019-04-06T16:03:56.094Z,29.20
2019-04-06T16:06:44.012Z,30.43
2019-04-06T16:09:32.647Z,32.40
2019-04-06T16:12:19.967Z,32.08
2019-04-06T16:14:54.048Z,31.80
2019-04-06T16:17:37.479Z,31.30
2019-04-06T16:20:24.096Z,33.83
2019-04-06T16:22:58.013Z,34.78
2019-04-06T16:25:29.645Z,34.90
2019-04-06T16:28:03.613Z,35.75
2019-04-06T16:30:40.627Z,36.77
2019-04-06T16:33:20.443Z,36.98
2019-04-06T16:36:00.452Z,36.95
2019-04-06T16:38:31.764Z,35.35
2019-04-06T16:41:02.720Z,37.35
2019-04-06T16:43:34.057Z,37.40
2019-04-06T16:46:07.603Z,37.53
2019-04-06T16:48:38.609Z,38.45
2019-04-06T16:51:09.583Z,37.78
2019-04-06T16:53:40.500Z,38.75
2019-04-06T16:56:24.279Z,38.90
2019-04-06T16:59:01.541Z,38.53
2019-04-06T17:01:38.525Z,39.08
2019-04-06T17:04:12.777Z,40.88
2019-04-06T17:06:46.578Z,40.65
2019-04-06T17:09:23.561Z,40.40
2019-04-06T17:12:03.965Z,41.95
2019-04-06T17:14:44.104Z,41.15
2019-04-06T17:17:20.834Z,41.68
2019-04-06T17:19:57.777Z,41.70
2019-04-06T17:22:28.781Z,42.98
2019-04-06T17:24:59.772Z,42.38
2019-04-06T17:27:49.007Z,44.15
2019-04-06T17:30:35.334Z,43.28
2019-04-06T17:33:24.142Z,41.77
2019-04-06T17:35:58.302Z,45.45
2019-04-06T17:38:29.478Z,45.98
2019-04-06T17:41:06.245Z,45.70
2019-04-06T17:43:40.325Z,45.03
2019-04-06T17:46:11.570Z,47.30
2019-04-06T17:48:58.774Z,46.05
2019-04-06T17:51:29.938Z,46.73
2019-04-06T17:54:00.973Z,48.02
2019-04-06T17:56:44.362Z,48.17
2019-04-06T17:59:18.812Z,48.33
2019-04-06T18:01:52.958Z,49.45
2019-04-06T18:04:33.045Z,50.23
2019-04-06T18:07:04.131Z,49.15
2019-04-06T18:09:51.515Z,48.95
2019-04-06T18:12:24.145Z,49.15
2019-04-06T18:14:53.568Z,48.92
2019-04-06T18:17:23.167Z,48.30
2019-04-06T18:19:52.941Z,49.33
2019-04-06T18:22:22.341Z,47.83
2019-04-06T18:24:52.161Z,50.00
2019-04-06T18:27:21.601Z,47.95
2019-04-06T18:29:51.144Z,47.08
2019-04-06T18:32:24.893Z,47.58
2019-04-06T18:37:26.692Z,45.67
2019-04-06T18:40:00.801Z,47.43
2019-04-06T18:42:30.181Z,47.20
2019-04-06T18:45:01.239Z,47.53
2019-04-06T18:47:32.515Z,46.15
2019-04-06T18:50:01.929Z,49.40
2019-04-06T18:52:31.683Z,50.30
2019-04-06T18:55:01.223Z,50.73
2019-04-06T18:57:32.719Z,51.28
2019-04-06T19:00:02.118Z,51.95
2019-04-06T19:02:31.758Z,54.53
2019-04-06T19:05:01.347Z,54.25
2019-04-06T19:07:30.738Z,55.17
2019-04-06T19:10:00.362Z,54.80
2019-04-06T19:12:30.287Z,55.30
2019-04-06T19:15:00.117Z,54.67
2019-04-06T19:17:29.630Z,56.63
2019-04-06T19:19:58.926Z,56.20
2019-04-06T19:22:28.439Z,55.67
2019-04-06T19:24:59.449Z,59.65
2019-04-06T19:27:29.647Z,57.93
2019-04-06T19:29:59.611Z,59.20
2019-04-06T19:32:28.988Z,60.78
2019-04-06T19:35:01.227Z,61.55
2019-04-06T19:37:30.799Z,60.10
2019-04-06T19:40:00.651Z,62.27
2019-04-06T19:42:30.220Z,61.42
2019-04-06T19:44:59.582Z,61.45
2019-04-06T19:47:28.980Z,64.95
2019-04-06T19:49:58.311Z,64.37
2019-04-06T19:52:28.300Z,65.35
2019-04-06T19:54:57.996Z,65.62
2019-04-06T19:57:27.345Z,65.83
2019-04-06T19:59:57.121Z,68.20
2019-04-06T20:02:26.760Z,67.60
2019-04-06T20:04:56.447Z,67.62
2019-04-06T20:07:25.734Z,64.77
2019-04-06T20:09:55.664Z,68.10
2019-04-06T20:12:25.053Z,65.87
2019-04-06T20:14:55.511Z,63.95
2019-04-06T20:17:25.137Z,65.40
2019-04-06T20:19:54.467Z,68.80
2019-04-06T20:22:23.843Z,69.35
2019-04-06T20:24:53.203Z,68.52
2019-04-06T20:27:22.509Z,68.35
2019-04-06T20:29:51.906Z,71.57
2019-04-06T20:32:21.355Z,70.78
2019-04-06T20:34:50.778Z,71.53
2019-04-06T20:37:20.612Z,71.47
2019-04-06T20:39:50.204Z,70.83
2019-04-06T20:42:20.006Z,72.40
2019-04-06T20:44:49.593Z,71.97
2019-04-06T20:47:21.525Z,72.47
2019-04-06T20:49:50.921Z,71.45
2019-04-06T20:52:20.534Z,71.15
2019-04-06T20:54:49.784Z,71.92
2019-04-06T20:57:20.230Z,70.75
2019-04-06T20:59:50.218Z,73.95
2019-04-06T21:02:19.816Z,71.53
2019-04-06T21:04:49.351Z,75.55
2019-04-06T21:07:19.792Z,77.30
2019-04-06T21:09:49.411Z,78.40
2019-04-06T21:12:19.231Z,77.78
2019-04-06T21:14:48.480Z,77.87
2019-04-06T21:17:19.625Z,80.30
2019-04-06T21:19:51.518Z,77.50
2019-04-06T21:22:22.854Z,73.10
2019-04-06T21:24:53.171Z,78.02
2019-04-06T21:27:22.702Z,77.92
2019-04-06T21:29:52.828Z,74.65
2019-04-06T21:32:22.698Z,79.40
2019-04-06T21:34:53.970Z,82.15
2019-04-06T21:37:23.275Z,77.58
2019-04-06T21:39:53.271Z,77.22
2019-04-06T21:42:22.998Z,78.90
2019-04-06T21:44:52.476Z,76.90
2019-04-06T21:47:22.015Z,80.20
2019-04-06T21:49:51.474Z,77.30
2019-04-06T21:52:20.936Z,75.85
2019-04-06T21:54:50.469Z,76.77
2019-04-06T21:57:19.818Z,78.30
2019-04-06T21:59:49.796Z,78.05
2019-04-06T22:02:19.440Z,73.90
2019-04-06T22:04:49.695Z,73.40
2019-04-06T22:07:20.292Z,76.17
2019-04-06T22:09:50.416Z,78.28
2019-04-06T22:12:19.909Z,76.28
2019-04-06T22:14:49.278Z,75.17
2019-04-06T22:17:19.673Z,74.70
2019-04-06T22:19:50.067Z,74.53
2019-04-06T22:22:19.497Z,73.55
2019-04-06T22:24:48.770Z,74.22
2019-04-06T22:27:18.547Z,73.78
2019-04-06T22:29:48.148Z,73.10
2019-04-06T22:32:18.041Z,72.37
2019-04-06T22:34:47.608Z,75.92
2019-04-06T22:37:17.866Z,78.35
2019-04-06T22:39:47.594Z,76.70
2019-04-06T22:42:16.869Z,79.20
2019-04-06T22:44:46.457Z,76.47
2019-04-06T22:47:15.860Z,76.55
2019-04-06T22:49:45.532Z,79.85
2019-04-06T22:52:14.950Z,80.15
2019-04-06T22:54:44.544Z,80.17
2019-04-06T22:57:13.802Z,78.70
2019-04-06T22:59:44.732Z,76.45
2019-04-06T23:02:14.644Z,75.70
2019-04-06T23:04:54.810Z,79.32
2019-04-06T23:07:27.061Z,77.10
2019-04-06T23:09:56.796Z,74.25
2019-04-06T23:12:26.408Z,74.07
2019-04-06T23:14:55.743Z,76.35
2019-04-06T23:17:25.137Z,74.42
2019-04-06T23:19:54.674Z,75.65
2019-04-06T23:22:24.052Z,73.67
2019-04-06T23:24:53.542Z,77.80
2019-04-06T23:27:22.809Z,75.10
2019-04-06T23:29:52.213Z,75.80
2019-04-06T23:32:22.297Z,76.67
2019-04-06T23:34:58.869Z,74.70
2019-04-06T23:37:23.206Z,76.70
2019-04-06T23:39:52.959Z,77.20
2019-04-06T23:42:23.940Z,77.50
2019-04-06T23:44:54.149Z,77.10
2019-04-06T23:47:24.655Z,77.27
2019-04-06T23:49:54.011Z,79.65
2019-04-06T23:52:24.024Z,78.28
2019-04-06T23:54:55.535Z,78.70
2019-04-06T23:57:26.560Z,78.80
2019-04-06T23:59:55.996Z,78.07
